Time;durP1;ratioP1;P1;durP2;ratioP2;P2;SDS_P1;SDS_P2;PMS_P1;PMS_P2;Temp;Humidity;BMP_temperature;BMP_pressure;BME280_temperature;BME280_humidity;BME280_pressure;Samples;Min_cycle;Max_cycle;Signal;HPM_P1;HPM_P2
2022/12/29 00:01:04;;;;;;;3.93;3.60;;;;;;;;;;4937511;29;20224;-89
2022/12/29 01:53:38;;;;;;;2.17;1.80;;;;;;;;;;4956769;29;20231;-91
2022/12/29 01:56:13;;;;;;;2.60;2.33;;;;;;;;;;4904345;29;20197;-91
2022/12/29 02:07:42;;;;;;;2.50;2.30;;;;;;;;;;4899478;29;20221;-91
2022/12/29 02:10:29;;;;;;;2.53;2.10;;;;;;;;;;4898387;29;20245;-90
2022/12/29 02:12:57;;;;;;;2.53;2.33;;;;;;;;;;4899988;29;20246;-92
2022/12/29 02:15:45;;;;;;;2.50;2.30;;;;;;;;;;4937626;29;20315;-91
2022/12/29 02:18:11;;;;;;;3.20;2.00;;;;;;;;;;4937070;29;20191;-92
2022/12/29 02:20:52;;;;;;;2.20;2.00;;;;;;;;;;4937003;29;20207;-91
2022/12/29 02:23:27;;;;;;;2.23;1.80;;;;;;;;;;4937006;29;20261;-91
2022/12/29 02:26:16;;;;;;;3.10;2.10;;;;;;;;;;4938020;29;20207;-91
2022/12/29 02:29:19;;;;;;;;;;;;;;;;;;;;;
2022/12/29 02:32:04;;;;;;;3.23;1.90;;;;;;;;;;4938595;29;20179;-92
2022/12/29 02:34:36;;;;;;;2.13;1.70;;;;;;;;;;4936696;29;20267;-91
2022/12/29 02:37:21;;;;;;;3.83;1.90;;;;;;;;;;4937775;29;20203;-92
2022/12/29 02:40:13;;;;;;;3.00;2.03;;;;;;;;;;4953272;29;20199;-91
2022/12/29 02:43:06;;;;;;;2.60;1.43;;;;;;;;;;4915379;29;20199;-92
2022/12/29 02:51:42;;;;;;;1.93;1.40;;;;;;;;;;4938131;28;20278;-92
2022/12/29 02:56:58;;;;;;;2.87;1.30;;;;;;;;;;4938700;29;20248;-91
2022/12/29 02:59:34;;;;;;;1.83;1.13;;;;;;;;;;4936790;29;20180;-92
2022/12/29 03:08:38;;;;;;;2.70;1.20;;;;;;;;;;4938836;29;20162;-91
2022/12/29 03:16:52;;;;;;;2.70;1.27;;;;;;;;;;4940022;29;20195;-91
2022/12/29 03:22:46;;;;;;;1.97;1.10;;;;;;;;;;4934891;29;20194;-90
2022/12/29 03:25:38;;;;;;;1.97;1.00;;;;;;;;;;4937517;29;20239;-91
2022/12/29 03:34:21;;;;;;;3.77;1.30;;;;;;;;;;4938816;29;20219;-92
2022/12/29 03:37:10;;;;;;;2.23;1.20;;;;;;;;;;4937023;29;20179;-92
2022/12/29 03:39:46;;;;;;;;;;;;;;;;;;;;;
2022/12/29 03:42:20;;;;;;;2.33;1.03;;;;;;;;;;4937119;29;20184;-92
2022/12/29 03:44:59;;;;;;;3.70;1.33;;;;;;;;;;4935935;29;20219;-92
2022/12/29 03:47:29;;;;;;;2.00;1.10;;;;;;;;;;4936501;29;20194;-90
2022/12/29 03:50:04;;;;;;;3.40;1.13;;;;;;;;;;4935560;29;20211;-91
2022/12/29 03:52:30;;;;;;;3.53;1.30;;;;;;;;;;4936081;29;20231;-91
2022/12/29 03:55:14;;;;;;;2.67;1.07;;;;;;;;;;4937071;29;20184;-90
2022/12/29 04:00:54;;;;;;;3.83;1.30;;;;;;;;;;4937409;29;20204;-90
2022/12/29 04:03:28;;;;;;;3.07;1.20;;;;;;;;;;4935445;29;20213;-91
2022/12/29 04:09:23;;;;;;;3.30;1.20;;;;;;;;;;4938607;29;20175;-91
2022/12/29 04:21:07;;;;;;;2.90;1.60;;;;;;;;;;4937044;29;20199;-90
2022/12/29 04:23:34;;;;;;;2.70;1.30;;;;;;;;;;4939193;29;20207;-90
2022/12/29 04:26:08;;;;;;;3.50;1.23;;;;;;;;;;4939578;29;20230;-91
2022/12/29 04:28:35;;;;;;;1.90;1.10;;;;;;;;;;4940907;29;20179;-90
2022/12/29 04:31:08;;;;;;;2.20;1.30;;;;;;;;;;4940296;29;20192;-92
2022/12/29 04:33:47;;;;;;;;;;;;;;;;;;;;;
2022/12/29 04:36:41;;;;;;;2.53;1.50;;;;;;;;;;4942331;29;20184;-91
2022/12/29 04:39:40;;;;;;;;;;;;;;;;;;;;;
2022/12/29 04:42:10;;;;;;;3.83;1.33;;;;;;;;;;4947897;29;20263;-91
2022/12/29 04:45:41;;;;;;;3.47;1.40;;;;;;;;;;4946277;29;20204;-91
2022/12/29 04:48:01;;;;;;;3.00;1.37;;;;;;;;;;4942145;29;20190;-92
2022/12/29 04:54:01;;;;;;;5.03;1.47;;;;;;;;;;4946623;29;20251;-92
2022/12/29 05:03:00;;;;;;;3.90;1.53;;;;;;;;;;4929503;29;20156;-92
2022/12/29 05:06:04;;;;;;;;;;;;;;;;;;;;;
2022/12/29 05:09:10;;;;;;;7.33;1.90;;;;;;;;;;4932149;29;20263;-92
2022/12/29 05:14:46;;;;;;;6.23;1.90;;;;;;;;;;4911475;29;20184;-91
2022/12/29 05:17:22;;;;;;;4.30;1.50;;;;;;;;;;4922025;29;20176;-91
2022/12/29 05:26:07;;;;;;;4.00;1.57;;;;;;;;;;4923630;29;20220;-91
2022/12/29 05:28:40;;;;;;;5.37;1.90;;;;;;;;;;4921861;29;20200;-90
2022/12/29 05:31:38;;;;;;;;;;;;;;;;;;;;;
2022/12/29 05:34:02;;;;;;;4.93;2.33;;;;;;;;;;4926205;29;20185;-92
2022/12/29 05:36:55;;;;;;;7.03;2.23;;;;;;;;;;4924948;29;20267;-91
2022/12/29 05:39:38;;;;;;;4.97;1.80;;;;;;;;;;4901374;29;20195;-91
2022/12/29 05:45:17;;;;;;;5.73;2.10;;;;;;;;;;4921882;29;20199;-91
2022/12/29 05:48:01;;;;;;;;;;;;;;;;;;;;;
2022/12/29 05:50:30;;;;;;;6.67;2.03;;;;;;;;;;4922891;29;20255;-92
2022/12/29 05:53:04;;;;;;;7.10;2.10;;;;;;;;;;4923135;29;20176;-92
2022/12/29 05:55:42;;;;;;;5.03;1.90;;;;;;;;;;4930309;29;20235;-91
2022/12/29 05:58:17;;;;;;;7.17;1.80;;;;;;;;;;4939571;29;20176;-92
2022/12/29 06:00:46;;;;;;;4.20;1.90;;;;;;;;;;4938780;29;20270;-92
2022/12/29 06:03:28;;;;;;;7.23;1.80;;;;;;;;;;4937635;29;20206;-91
2022/12/29 06:05:57;;;;;;;6.43;2.10;;;;;;;;;;4938068;29;20219;-91
2022/12/29 06:08:23;;;;;;;6.50;1.90;;;;;;;;;;4937452;29;20180;-90
2022/12/29 06:10:56;;;;;;;7.57;2.17;;;;;;;;;;4937256;29;20183;-90
2022/12/29 06:13:22;;;;;;;6.10;1.93;;;;;;;;;;4937602;29;20187;-91
2022/12/29 06:15:56;;;;;;;8.03;1.90;;;;;;;;;;4939196;29;20213;-91
2022/12/29 06:18:42;;;;;;;;;;;;;;;;;;;;;
2022/12/29 06:21:21;;;;;;;;;;;;;;;;;;;;;
2022/12/29 06:24:15;;;;;;;;;;;;;;;;;;;;;
2022/12/29 06:26:41;;;;;;;9.47;2.03;;;;;;;;;;4937947;29;20194;-90
2022/12/29 06:29:17;;;;;;;7.80;2.10;;;;;;;;;;4936638;29;20176;-91
2022/12/29 06:31:46;;;;;;;9.37;2.10;;;;;;;;;;4936636;29;20183;-91
2022/12/29 06:37:18;;;;;;;8.60;1.70;;;;;;;;;;4929770;29;20184;-90
2022/12/29 06:40:02;;;;;;;8.70;1.90;;;;;;;;;;4930313;29;20187;-91
2022/12/29 06:43:01;;;;;;;9.17;1.73;;;;;;;;;;4917461;29;20192;-91
2022/12/29 06:45:27;;;;;;;7.33;1.80;;;;;;;;;;4916632;29;20249;-90
2022/12/29 06:48:18;;;;;;;8.33;2.10;;;;;;;;;;4914200;29;20181;-90
2022/12/29 06:50:47;;;;;;;7.10;1.80;;;;;;;;;;4917200;29;20203;-89
2022/12/29 06:56:12;;;;;;;9.77;2.30;;;;;;;;;;4918029;29;20367;-88
2022/12/29 06:58:38;;;;;;;6.07;1.70;;;;;;;;;;4924970;29;20191;-88
2022/12/29 07:01:07;;;;;;;9.03;1.90;;;;;;;;;;4935637;29;20191;-90
2022/12/29 07:06:57;;;;;;;8.43;1.70;;;;;;;;;;4930111;29;20219;-90
2022/12/29 07:09:26;;;;;;;6.17;2.03;;;;;;;;;;4936091;29;20235;-91
2022/12/29 07:18:05;;;;;;;6.30;1.73;;;;;;;;;;4937194;29;20178;-92
2022/12/29 07:20:34;;;;;;;5.13;1.88;;;;;;;;;;4935683;29;20433;-91
2022/12/29 07:23:18;;;;;;;;;;;;;;;;;;;;;
2022/12/29 07:29:06;;;;;;;6.17;1.57;;;;;;;;;;4904777;29;20188;-91
2022/12/29 07:31:32;;;;;;;7.17;1.70;;;;;;;;;;4916940;29;20184;-91
2022/12/29 07:34:45;;;;;;;4.60;1.50;;;;;;;;;;4917394;29;20180;-91
2022/12/29 07:37:40;;;;;;;6.47;1.80;;;;;;;;;;4917079;29;20283;-91
2022/12/29 07:46:25;;;;;;;;;;;;;;;;;;;;;
2022/12/29 07:52:38;;;;;;;9.37;1.70;;;;;;;;;;4917892;29;20160;-92
2022/12/29 08:01:21;;;;;;;7.37;1.80;;;;;;;;;;4881968;29;20200;-91
2022/12/29 08:13:08;;;;;;;5.97;2.07;;;;;;;;;;4864310;29;20186;-92
2022/12/29 08:15:46;;;;;;;7.03;2.20;;;;;;;;;;4863651;29;20257;-90
2022/12/29 08:18:25;;;;;;;;;;;;;;;;;;;;;
2022/12/29 08:20:54;;;;;;;8.33;2.37;;;;;;;;;;4882062;29;20181;-91
2022/12/29 08:26:26;;;;;;;7.93;2.23;;;;;;;;;;4882014;29;20265;-91
2022/12/29 08:28:53;;;;;;;6.90;1.97;;;;;;;;;;4882358;29;20189;-91
2022/12/29 08:31:22;;;;;;;4.97;1.87;;;;;;;;;;4900804;29;20189;-91
2022/12/29 08:33:48;;;;;;;7.33;2.40;;;;;;;;;;4930024;29;20175;-91
2022/12/29 08:36:24;;;;;;;10.10;2.10;;;;;;;;;;4938609;29;20242;-89
2022/12/29 08:39:15;;;;;;;6.37;1.93;;;;;;;;;;4939687;29;20191;-91
2022/12/29 08:41:44;;;;;;;7.13;2.30;;;;;;;;;;4914665;29;20192;-90
2022/12/29 08:44:37;;;;;;;8.20;2.17;;;;;;;;;;4922261;29;20219;-93
2022/12/29 08:47:21;;;;;;;6.87;1.97;;;;;;;;;;4939097;29;20192;-91
2022/12/29 08:49:56;;;;;;;6.30;2.10;;;;;;;;;;4921149;29;20180;-91
2022/12/29 08:52:22;;;;;;;4.67;1.70;;;;;;;;;;4929118;29;20187;-92
2022/12/29 08:54:49;;;;;;;9.63;2.13;;;;;;;;;;4932041;29;20315;-92
2022/12/29 08:57:18;;;;;;;8.60;1.87;;;;;;;;;;4937787;29;20284;-92
2022/12/29 08:59:44;;;;;;;7.17;2.20;;;;;;;;;;4938329;29;20235;-91
2022/12/29 09:02:18;;;;;;;9.90;2.30;;;;;;;;;;4938137;29;20180;-91
2022/12/29 09:04:53;;;;;;;7.10;2.07;;;;;;;;;;4938286;29;20234;-91
2022/12/29 09:07:26;;;;;;;8.73;2.23;;;;;;;;;;4924746;29;20190;-92
2022/12/29 09:09:54;;;;;;;7.37;2.23;;;;;;;;;;4938179;29;20184;-92
2022/12/29 09:12:28;;;;;;;7.53;2.30;;;;;;;;;;4938501;29;20180;-91
2022/12/29 09:15:02;;;;;;;7.83;2.13;;;;;;;;;;4938667;29;20231;-92
2022/12/29 09:20:42;;;;;;;7.23;2.20;;;;;;;;;;4938516;29;20190;-93
2022/12/29 09:23:35;;;;;;;9.93;2.57;;;;;;;;;;4941538;29;20192;-93
2022/12/29 09:26:04;;;;;;;12.63;2.67;;;;;;;;;;4953883;29;20216;-89
2022/12/29 09:31:26;;;;;;;10.00;2.40;;;;;;;;;;4935716;29;20187;-92
2022/12/29 09:34:01;;;;;;;10.57;2.60;;;;;;;;;;4955174;29;20176;-92
2022/12/29 09:36:35;;;;;;;11.33;2.60;;;;;;;;;;4953142;29;20187;-91
2022/12/29 09:39:13;;;;;;;11.33;2.50;;;;;;;;;;4953626;29;20210;-92
2022/12/29 09:42:02;;;;;;;10.17;2.67;;;;;;;;;;4954335;29;20281;-93
2022/12/29 09:48:05;;;;;;;10.10;2.73;;;;;;;;;;4942185;29;20163;-93
2022/12/29 09:50:40;;;;;;;10.13;2.53;;;;;;;;;;4957471;29;20180;-91
2022/12/29 09:53:15;;;;;;;9.20;2.57;;;;;;;;;;4956870;29;20211;-92
2022/12/29 09:56:03;;;;;;;7.23;2.40;;;;;;;;;;4954603;29;20224;-92
2022/12/29 09:58:33;;;;;;;9.33;2.40;;;;;;;;;;4926692;29;20271;-92
2022/12/29 10:01:04;;;;;;;12.00;2.43;;;;;;;;;;4957471;29;20187;-92
2022/12/29 10:03:45;;;;;;;8.53;2.37;;;;;;;;;;4954139;28;20286;-92
2022/12/29 10:06:20;;;;;;;10.03;2.63;;;;;;;;;;4955164;29;20294;-91
2022/12/29 10:21:44;;;;;;;10.97;2.50;;;;;;;;;;4917667;29;20164;-93
2022/12/29 10:24:27;;;;;;;9.27;2.40;;;;;;;;;;4862392;29;20190;-92
2022/12/29 10:26:57;;;;;;;7.30;2.23;;;;;;;;;;4863742;29;20186;-90
2022/12/29 10:29:45;;;;;;;8.17;2.20;;;;;;;;;;4904407;29;20257;-92
2022/12/29 11:03:40;;;;;;;9.83;2.73;;;;;;;;;;4832511;29;20208;-91
2022/12/29 11:06:26;;;;;;;;;;;;;;;;;;;;;
2022/12/29 11:09:16;;;;;;;11.27;2.93;;;;;;;;;;4918435;29;20207;-92
2022/12/29 11:11:44;;;;;;;12.30;2.70;;;;;;;;;;4913632;29;20189;-92
2022/12/29 11:17:39;;;;;;;12.03;3.30;;;;;;;;;;4947312;29;20211;-92
2022/12/29 11:30:11;;;;;;;11.43;3.27;;;;;;;;;;4869532;29;20214;-92
2022/12/29 11:36:12;;;;;;;;;;;;;;;;;;;;;
2022/12/29 11:38:43;;;;;;;9.60;3.37;;;;;;;;;;4868907;29;20234;-93
2022/12/29 11:41:25;;;;;;;;;;;;;;;;;;;;;
2022/12/29 11:44:05;;;;;;;10.70;3.57;;;;;;;;;;4856847;29;20174;-92
2022/12/29 11:46:37;;;;;;;13.93;4.00;;;;;;;;;;4848814;29;20229;-92
2022/12/29 11:49:04;;;;;;;12.00;3.57;;;;;;;;;;4859066;29;20253;-91
2022/12/29 11:52:09;;;;;;;;;;;;;;;;;;;;;
2022/12/29 11:54:53;;;;;;;12.57;3.63;;;;;;;;;;4886822;29;20198;-90
2022/12/29 11:57:23;;;;;;;13.67;4.00;;;;;;;;;;4914940;29;20314;-92
2022/12/29 12:00:17;;;;;;;13.90;4.30;;;;;;;;;;4939035;29;20239;-92
2022/12/29 12:02:56;;;;;;;12.17;3.90;;;;;;;;;;4940101;29;20219;-92
2022/12/29 12:05:55;;;;;;;;;;;;;;;;;;;;;
2022/12/29 12:11:37;;;;;;;12.70;4.23;;;;;;;;;;4940678;29;20171;-91
2022/12/29 12:14:19;;;;;;;11.07;4.20;;;;;;;;;;4939194;29;20172;-90
2022/12/29 12:17:05;;;;;;;13.27;4.17;;;;;;;;;;4939346;29;20199;-90
2022/12/29 12:19:34;;;;;;;11.27;4.20;;;;;;;;;;4923357;29;20192;-90
2022/12/29 12:22:19;;;;;;;17.57;4.53;;;;;;;;;;4938557;29;20192;-91
2022/12/29 12:24:54;;;;;;;12.23;4.10;;;;;;;;;;4920302;29;20184;-91
2022/12/29 12:27:34;;;;;;;10.40;3.97;;;;;;;;;;4920112;29;20180;-91
2022/12/29 12:30:08;;;;;;;9.40;3.63;;;;;;;;;;4940562;29;20188;-91
2022/12/29 12:32:49;;;;;;;10.70;4.07;;;;;;;;;;4938366;29;20184;-91
2022/12/29 12:35:18;;;;;;;12.97;3.80;;;;;;;;;;4938711;29;20183;-91
2022/12/29 12:38:05;;;;;;;9.20;3.73;;;;;;;;;;4944564;28;20203;-91
2022/12/29 12:40:43;;;;;;;12.73;4.13;;;;;;;;;;4930268;29;20184;-91
2022/12/29 12:43:18;;;;;;;11.63;4.00;;;;;;;;;;4919378;29;20216;-91
2022/12/29 12:45:56;;;;;;;15.77;4.50;;;;;;;;;;4931596;29;20246;-91
2022/12/29 12:48:37;;;;;;;14.30;4.57;;;;;;;;;;4938832;29;20429;-92
2022/12/29 12:51:18;;;;;;;11.97;4.17;;;;;;;;;;4938413;29;20209;-89
2022/12/29 12:54:03;;;;;;;15.17;4.50;;;;;;;;;;4939639;29;20180;-90
2022/12/29 12:56:45;;;;;;;15.50;3.90;;;;;;;;;;4939176;29;20231;-90
2022/12/29 12:59:33;;;;;;;11.17;3.90;;;;;;;;;;4939962;29;20186;-91
2022/12/29 13:02:31;;;;;;;9.70;3.43;;;;;;;;;;4941739;29;20222;-89
2022/12/29 13:05:00;;;;;;;12.20;4.00;;;;;;;;;;4917659;29;20282;-91
2022/12/29 13:07:41;;;;;;;12.33;4.17;;;;;;;;;;4939995;29;20201;-88
2022/12/29 13:10:33;;;;;;;12.10;4.23;;;;;;;;;;4938052;29;20274;-91
2022/12/29 13:13:23;;;;;;;12.63;3.93;;;;;;;;;;4938169;29;20258;-92
2022/12/29 13:15:59;;;;;;;12.83;4.20;;;;;;;;;;4917496;29;20202;-91
2022/12/29 13:18:28;;;;;;;10.97;3.97;;;;;;;;;;4937910;29;20215;-91
2022/12/29 13:20:54;;;;;;;13.23;4.03;;;;;;;;;;4937976;29;20192;-91
2022/12/29 13:23:25;;;;;;;11.23;4.00;;;;;;;;;;4946685;29;20255;-91
2022/12/29 13:25:57;;;;;;;12.80;3.90;;;;;;;;;;4938103;29;20288;-91
2022/12/29 13:28:31;;;;;;;16.73;4.30;;;;;;;;;;4936283;29;20184;-91
2022/12/29 13:31:34;;;;;;;16.47;4.43;;;;;;;;;;4949602;28;20187;-91
2022/12/29 13:34:05;;;;;;;11.80;4.03;;;;;;;;;;4937841;29;20187;-88
2022/12/29 13:36:43;;;;;;;12.30;4.40;;;;;;;;;;4937468;29;20242;-88
2022/12/29 13:39:41;;;;;;;11.83;4.00;;;;;;;;;;4937247;29;20196;-88
2022/12/29 13:42:10;;;;;;;13.33;4.23;;;;;;;;;;4926677;29;20192;-90
2022/12/29 13:44:44;;;;;;;14.37;3.90;;;;;;;;;;4937011;29;20189;-89
2022/12/29 13:47:24;;;;;;;9.83;3.47;;;;;;;;;;4937411;29;20180;-89
2022/12/29 13:49:51;;;;;;;10.90;4.20;;;;;;;;;;4937289;29;20239;-90
2022/12/29 13:52:22;;;;;;;13.27;3.70;;;;;;;;;;4937097;29;20265;-90
2022/12/29 13:55:07;;;;;;;12.13;3.37;;;;;;;;;;4936154;29;20268;-90
2022/12/29 13:57:49;;;;;;;9.60;3.27;;;;;;;;;;4936838;29;20227;-89
2022/12/29 14:00:20;;;;;;;14.03;4.03;;;;;;;;;;4937080;29;20191;-89
2022/12/29 14:02:46;;;;;;;11.00;3.73;;;;;;;;;;4936742;29;20186;-89
2022/12/29 14:05:18;;;;;;;10.03;3.37;;;;;;;;;;4925974;29;20295;-88
2022/12/29 14:07:44;;;;;;;10.83;3.20;;;;;;;;;;4918047;29;20188;-89
2022/12/29 14:10:40;;;;;;;12.20;3.83;;;;;;;;;;4918014;29;20180;-90
2022/12/29 14:13:15;;;;;;;14.00;4.20;;;;;;;;;;4897618;29;20195;-89
2022/12/29 14:15:42;;;;;;;9.70;3.50;;;;;;;;;;4917859;29;20180;-90
2022/12/29 14:18:17;;;;;;;12.73;3.83;;;;;;;;;;4918014;29;20248;-89
2022/12/29 14:21:07;;;;;;;13.03;3.93;;;;;;;;;;4917741;29;20184;-90
2022/12/29 14:23:40;;;;;;;9.30;3.77;;;;;;;;;;4898966;29;20252;-89
2022/12/29 14:26:06;;;;;;;12.20;3.67;;;;;;;;;;4917569;29;20209;-91
2022/12/29 14:28:33;;;;;;;9.97;3.23;;;;;;;;;;4917364;29;20181;-90
2022/12/29 14:31:04;;;;;;;10.30;3.20;;;;;;;;;;4917699;29;20181;-89
2022/12/29 14:33:31;;;;;;;6.90;2.60;;;;;;;;;;4917519;29;20180;-89
2022/12/29 14:36:17;;;;;;;7.97;2.47;;;;;;;;;;4917659;29;20193;-91
2022/12/29 14:38:48;;;;;;;5.97;2.20;;;;;;;;;;4917486;29;20275;-90
2022/12/29 14:41:33;;;;;;;7.10;2.60;;;;;;;;;;4917338;29;20184;-91
2022/12/29 14:44:01;;;;;;;6.27;2.40;;;;;;;;;;4917391;29;20185;-89
2022/12/29 14:46:41;;;;;;;5.63;2.07;;;;;;;;;;4918716;29;20213;-90
2022/12/29 14:49:15;;;;;;;9.33;2.57;;;;;;;;;;4917733;29;20240;-91
2022/12/29 14:51:44;;;;;;;8.47;2.53;;;;;;;;;;4917336;29;20188;-90
2022/12/29 14:54:42;;;;;;;6.50;2.63;;;;;;;;;;4917618;29;20177;-89
2022/12/29 14:57:13;;;;;;;7.30;2.77;;;;;;;;;;4900562;29;20251;-90
2022/12/29 14:59:39;;;;;;;11.13;3.50;;;;;;;;;;4917770;29;20223;-90
2022/12/29 15:02:14;;;;;;;8.30;3.03;;;;;;;;;;4917359;29;20216;-90
2022/12/29 15:04:40;;;;;;;7.00;3.00;;;;;;;;;;4917383;29;20208;-89
2022/12/29 15:07:09;;;;;;;10.20;3.30;;;;;;;;;;4916805;29;20176;-89
2022/12/29 15:09:38;;;;;;;10.00;2.87;;;;;;;;;;4917145;29;20184;-90
2022/12/29 15:12:22;;;;;;;6.60;2.60;;;;;;;;;;4917294;29;20191;-89
2022/12/29 15:14:55;;;;;;;7.40;2.77;;;;;;;;;;4917029;29;20253;-90
2022/12/29 15:17:32;;;;;;;8.27;2.37;;;;;;;;;;4917410;29;20204;-89
2022/12/29 15:20:00;;;;;;;8.77;2.83;;;;;;;;;;4934861;29;20255;-90
2022/12/29 15:22:26;;;;;;;7.67;2.87;;;;;;;;;;4935521;29;20184;-91
2022/12/29 15:24:53;;;;;;;10.93;2.73;;;;;;;;;;4935512;29;20194;-88
2022/12/29 15:27:21;;;;;;;9.83;2.80;;;;;;;;;;4931514;29;20190;-90
2022/12/29 15:29:47;;;;;;;12.07;2.97;;;;;;;;;;4935737;29;20209;-90
2022/12/29 15:32:18;;;;;;;7.47;3.47;;;;;;;;;;4935950;29;20180;-90
2022/12/29 15:34:48;;;;;;;10.83;3.10;;;;;;;;;;4935464;29;20190;-90
2022/12/29 15:37:35;;;;;;;14.10;3.67;;;;;;;;;;4936089;29;20267;-90
2022/12/29 15:40:01;;;;;;;11.38;3.63;;;;;;;;;;4935603;29;20500;-90
2022/12/29 15:42:33;;;;;;;7.53;3.20;;;;;;;;;;4935481;29;20278;-90
2022/12/29 15:45:03;;;;;;;8.70;3.33;;;;;;;;;;4930759;29;20218;-90
2022/12/29 15:47:30;;;;;;;9.67;3.00;;;;;;;;;;4917579;29;20194;-90
2022/12/29 15:50:01;;;;;;;14.30;3.07;;;;;;;;;;4927728;29;20180;-90
2022/12/29 15:52:32;;;;;;;10.03;2.93;;;;;;;;;;4932054;29;20181;-89
2022/12/29 15:54:59;;;;;;;11.27;3.03;;;;;;;;;;4932258;29;20422;-91
2022/12/29 15:57:27;;;;;;;10.83;3.20;;;;;;;;;;4935959;29;20232;-90
2022/12/29 15:59:53;;;;;;;37.87;26.87;;;;;;;;;;4954392;28;20191;-90
2022/12/29 16:02:20;;;;;;;14.00;6.90;;;;;;;;;;4935291;29;20181;-90
2022/12/29 16:04:48;;;;;;;13.10;3.40;;;;;;;;;;4935420;29;20208;-90
2022/12/29 16:07:31;;;;;;;8.33;2.70;;;;;;;;;;4936056;29;20254;-90
2022/12/29 16:10:01;;;;;;;10.47;2.80;;;;;;;;;;4930356;29;20188;-90
2022/12/29 16:12:33;;;;;;;6.87;2.60;;;;;;;;;;4935066;29;20184;-90
2022/12/29 16:15:13;;;;;;;11.30;2.97;;;;;;;;;;4943071;29;20191;-90
2022/12/29 16:17:58;;;;;;;8.87;2.80;;;;;;;;;;4916723;29;20301;-88
2022/12/29 16:20:28;;;;;;;7.13;2.80;;;;;;;;;;4921080;29;20184;-87
2022/12/29 16:22:58;;;;;;;9.63;3.23;;;;;;;;;;4938593;29;20188;-86
2022/12/29 16:25:26;;;;;;;9.20;2.77;;;;;;;;;;4952547;29;20207;-87
2022/12/29 16:27:53;;;;;;;9.27;2.70;;;;;;;;;;4931788;29;20180;-86
2022/12/29 16:30:19;;;;;;;11.93;3.73;;;;;;;;;;4938779;29;20180;-92
2022/12/29 16:32:49;;;;;;;10.97;3.53;;;;;;;;;;4929773;29;20236;-88
2022/12/29 16:35:20;;;;;;;10.50;2.90;;;;;;;;;;4938605;29;20192;-90
2022/12/29 16:37:47;;;;;;;8.13;2.80;;;;;;;;;;4938652;29;20234;-89
2022/12/29 16:40:23;;;;;;;11.43;3.20;;;;;;;;;;4941000;29;20251;-89
2022/12/29 16:43:15;;;;;;;9.67;2.97;;;;;;;;;;4957773;28;20242;-91
2022/12/29 16:45:47;;;;;;;10.80;3.07;;;;;;;;;;4935709;29;20271;-89
2022/12/29 16:48:16;;;;;;;11.40;2.80;;;;;;;;;;4956812;28;20184;-87
2022/12/29 16:50:43;;;;;;;7.07;2.50;;;;;;;;;;4957610;28;20187;-90
2022/12/29 16:53:19;;;;;;;9.93;2.67;;;;;;;;;;4957794;28;20183;-91
2022/12/29 16:55:48;;;;;;;10.13;2.50;;;;;;;;;;4939304;28;20188;-88
2022/12/29 16:58:26;;;;;;;7.60;2.53;;;;;;;;;;4936857;29;20232;-90
2022/12/29 17:00:55;;;;;;;11.63;2.80;;;;;;;;;;4937619;29;20187;-91
2022/12/29 17:03:22;;;;;;;8.70;2.80;;;;;;;;;;4937768;29;20204;-90
2022/12/29 17:05:48;;;;;;;6.07;2.80;;;;;;;;;;4935137;29;20223;-89
2022/12/29 17:08:22;;;;;;;6.93;2.70;;;;;;;;;;4945432;29;20425;-88
2022/12/29 17:13:33;;;;;;;8.00;2.80;;;;;;;;;;4946348;29;20312;-89
2022/12/29 17:15:59;;;;;;;5.67;2.20;;;;;;;;;;4952553;28;20192;-88
2022/12/29 17:18:26;;;;;;;6.53;2.30;;;;;;;;;;4944885;28;20184;-90
2022/12/29 17:20:54;;;;;;;9.47;2.17;;;;;;;;;;4937365;29;20191;-89
2022/12/29 17:23:20;;;;;;;6.73;2.00;;;;;;;;;;4935928;29;20179;-88
2022/12/29 17:25:46;;;;;;;8.10;2.17;;;;;;;;;;4937533;29;20214;-88
2022/12/29 17:28:20;;;;;;;6.63;2.43;;;;;;;;;;4937139;29;20188;-88
2022/12/29 17:30:46;;;;;;;5.97;2.07;;;;;;;;;;4932745;29;20188;-88
2022/12/29 17:33:16;;;;;;;7.63;2.50;;;;;;;;;;4930249;29;20223;-87
2022/12/29 17:35:55;;;;;;;;;;;;;;;;;;;;;
2022/12/29 17:38:23;;;;;;;11.98;3.80;;;;;;;;;;4944621;29;20454;-85
2022/12/29 17:41:01;;;;;;;10.43;2.77;;;;;;;;;;4943739;28;20279;-88
2022/12/29 17:44:08;;;;;;;;;;;;;;;;;;;;;
2022/12/29 17:56:00;;;;;;;9.63;3.03;;;;;;;;;;4917811;29;20172;-90
2022/12/29 18:02:19;;;;;;;9.20;3.10;;;;;;;;;;4916021;29;20189;-93
2022/12/29 18:04:58;;;;;;;12.53;3.67;;;;;;;;;;4898012;29;20298;-91
2022/12/29 18:20:39;;;;;;;;;;;;;;;;;;;;;
2022/12/29 18:23:42;;;;;;;11.17;3.47;;;;;;;;;;4828921;29;20201;-89
2022/12/29 18:41:42;;;;;;;10.37;3.43;;;;;;;;;;5021046;23;20229;-79
2022/12/29 18:44:12;;;;;;;13.33;3.20;;;;;;;;;;4957521;28;20201;-79
2022/12/29 18:46:39;;;;;;;11.47;3.67;;;;;;;;;;4972870;28;20202;-79
2022/12/29 18:49:05;;;;;;;11.77;3.77;;;;;;;;;;4949957;28;20201;-79
2022/12/29 18:51:31;;;;;;;10.90;3.60;;;;;;;;;;4970164;28;20182;-81
2022/12/29 18:53:57;;;;;;;12.43;3.73;;;;;;;;;;4954362;28;20213;-80
2022/12/29 18:56:23;;;;;;;12.23;3.53;;;;;;;;;;4957905;28;20187;-86
2022/12/29 18:58:50;;;;;;;10.77;3.80;;;;;;;;;;4964967;28;20197;-82
2022/12/29 19:01:21;;;;;;;11.60;3.70;;;;;;;;;;4979967;28;20190;-80
2022/12/29 19:03:47;;;;;;;12.67;4.20;;;;;;;;;;4965293;28;20186;-80
2022/12/29 19:06:13;;;;;;;13.57;3.67;;;;;;;;;;4962970;28;20287;-80
2022/12/29 19:08:39;;;;;;;13.17;3.60;;;;;;;;;;4960983;28;20192;-81
2022/12/29 19:11:05;;;;;;;14.93;4.27;;;;;;;;;;4959453;28;20193;-80
2022/12/29 19:13:32;;;;;;;13.23;3.80;;;;;;;;;;4952744;28;20193;-79
2022/12/29 19:15:58;;;;;;;11.77;3.87;;;;;;;;;;4957109;28;20225;-79
2022/12/29 19:18:26;;;;;;;12.03;4.53;;;;;;;;;;4958067;28;20193;-79
2022/12/29 19:20:53;;;;;;;14.13;4.30;;;;;;;;;;4958663;28;20191;-79
2022/12/29 19:23:21;;;;;;;13.97;4.50;;;;;;;;;;4971596;28;20197;-79
2022/12/29 19:25:47;;;;;;;19.77;4.73;;;;;;;;;;4959155;28;20246;-79
2022/12/29 19:28:18;;;;;;;13.80;4.27;;;;;;;;;;4972322;28;20217;-79
2022/12/29 19:30:44;;;;;;;18.47;4.47;;;;;;;;;;4977137;28;20254;-84
2022/12/29 19:33:10;;;;;;;14.10;4.53;;;;;;;;;;4957489;28;20186;-79
2022/12/29 19:35:37;;;;;;;17.50;4.87;;;;;;;;;;4957853;28;20198;-79
2022/12/29 19:38:03;;;;;;;18.70;4.37;;;;;;;;;;4985507;28;20193;-79
2022/12/29 19:40:29;;;;;;;13.87;3.50;;;;;;;;;;4972430;28;20200;-79
2022/12/29 19:42:56;;;;;;;13.50;4.20;;;;;;;;;;4960384;28;20198;-79
2022/12/29 19:45:22;;;;;;;13.50;3.93;;;;;;;;;;4976879;28;20220;-79
2022/12/29 19:47:48;;;;;;;13.40;3.97;;;;;;;;;;4957323;28;20246;-79
2022/12/29 19:50:15;;;;;;;19.93;4.70;;;;;;;;;;4954995;28;20302;-79
2022/12/29 19:52:42;;;;;;;19.80;4.37;;;;;;;;;;4966634;28;20174;-79
2022/12/29 19:55:08;;;;;;;15.33;4.10;;;;;;;;;;4980567;28;20175;-79
2022/12/29 19:57:34;;;;;;;17.67;4.53;;;;;;;;;;4967491;28;20272;-79
2022/12/29 20:00:00;;;;;;;17.67;4.97;;;;;;;;;;4962480;28;20244;-79
2022/12/29 20:02:28;;;;;;;20.40;5.00;;;;;;;;;;4963473;28;20186;-80
2022/12/29 20:04:55;;;;;;;17.97;4.57;;;;;;;;;;4980443;28;20182;-80
2022/12/29 20:07:22;;;;;;;19.40;5.07;;;;;;;;;;4975214;28;20187;-80
2022/12/29 20:09:48;;;;;;;17.60;4.27;;;;;;;;;;4973977;28;20237;-81
2022/12/29 20:12:14;;;;;;;17.97;4.13;;;;;;;;;;4955600;28;20186;-80
2022/12/29 20:14:41;;;;;;;15.70;4.20;;;;;;;;;;4957602;28;20194;-80
2022/12/29 20:17:08;;;;;;;14.30;4.37;;;;;;;;;;4947529;28;20206;-80
2022/12/29 20:19:35;;;;;;;18.13;4.40;;;;;;;;;;4976364;28;20194;-80
2022/12/29 20:22:01;;;;;;;16.03;4.50;;;;;;;;;;4965586;28;20183;-80
2022/12/29 20:24:28;;;;;;;13.63;3.83;;;;;;;;;;4961041;28;20244;-80
2022/12/29 20:26:55;;;;;;;15.60;4.30;;;;;;;;;;4963249;28;20218;-80
2022/12/29 20:29:21;;;;;;;19.57;4.20;;;;;;;;;;4965728;28;20187;-80
2022/12/29 20:31:47;;;;;;;20.70;4.67;;;;;;;;;;4945171;28;20193;-80
2022/12/29 20:34:14;;;;;;;21.37;4.90;;;;;;;;;;4960930;28;20174;-80
2022/12/29 20:36:41;;;;;;;19.03;5.30;;;;;;;;;;4944647;28;20185;-79
2022/12/29 20:39:08;;;;;;;18.57;4.83;;;;;;;;;;4970705;28;20191;-78
2022/12/29 20:41:35;;;;;;;17.33;5.30;;;;;;;;;;4977379;28;20277;-78
2022/12/29 20:44:02;;;;;;;18.50;4.97;;;;;;;;;;4961129;28;20193;-78
2022/12/29 20:46:29;;;;;;;16.07;4.67;;;;;;;;;;4970233;28;20206;-78
2022/12/29 20:48:55;;;;;;;15.50;4.40;;;;;;;;;;4953234;28;20194;-79
2022/12/29 20:51:21;;;;;;;19.37;4.90;;;;;;;;;;4944637;28;20278;-78
2022/12/29 20:53:47;;;;;;;20.83;5.03;;;;;;;;;;4969889;28;20186;-80
2022/12/29 20:56:14;;;;;;;18.53;5.20;;;;;;;;;;4996448;28;20190;-80
2022/12/29 20:58:40;;;;;;;16.03;4.57;;;;;;;;;;4972872;28;20198;-80
2022/12/29 21:01:08;;;;;;;22.63;5.13;;;;;;;;;;4952040;28;20232;-84
2022/12/29 21:03:34;;;;;;;15.63;4.53;;;;;;;;;;4962964;28;20185;-84
2022/12/29 21:06:00;;;;;;;21.60;5.07;;;;;;;;;;4960212;28;20213;-83
2022/12/29 21:08:28;;;;;;;20.93;5.57;;;;;;;;;;4963157;28;20195;-84
2022/12/29 21:10:54;;;;;;;19.17;5.93;;;;;;;;;;4979270;28;20188;-79
2022/12/29 21:13:21;;;;;;;20.10;5.80;;;;;;;;;;4968656;28;20191;-79
2022/12/29 21:15:47;;;;;;;17.50;5.53;;;;;;;;;;4979159;28;20193;-78
2022/12/29 21:18:13;;;;;;;19.93;6.37;;;;;;;;;;4978390;28;20184;-78
2022/12/29 21:20:39;;;;;;;19.73;4.87;;;;;;;;;;4945900;28;20190;-80
2022/12/29 21:23:06;;;;;;;18.40;5.27;;;;;;;;;;4950450;28;20201;-80
2022/12/29 21:25:35;;;;;;;22.20;5.70;;;;;;;;;;4977567;28;20207;-80
2022/12/29 21:28:12;;;;;;;22.63;5.00;;;;;;;;;;4961422;28;20194;-80
2022/12/29 21:30:38;;;;;;;21.48;5.60;;;;;;;;;;4966230;28;20421;-80